createdAt,value
2022-12-03T00:00:35.681Z,5.25
2022-12-03T00:03:02.265Z,5.38
2022-12-03T00:05:28.892Z,5.40
2022-12-03T00:07:55.465Z,5.72
2022-12-03T00:10:22.050Z,5.45
2022-12-03T00:12:48.556Z,6.00
2022-12-03T00:15:15.105Z,5.13
2022-12-03T00:17:41.620Z,5.43
2022-12-03T00:20:09.258Z,5.75
2022-12-03T00:22:35.687Z,5.30
2022-12-03T00:25:02.160Z,5.22
2022-12-03T00:27:28.657Z,4.68
2022-12-03T00:29:55.241Z,5.25
2022-12-03T00:32:21.725Z,5.03
2022-12-03T00:34:48.302Z,4.97
2022-12-03T00:37:14.870Z,5.25
2022-12-03T00:39:41.347Z,4.80
2022-12-03T00:42:07.847Z,5.10
2022-12-03T00:44:34.290Z,5.10
2022-12-03T00:47:00.861Z,5.47
2022-12-03T00:49:27.459Z,4.82
2022-12-03T00:51:53.996Z,5.60
2022-12-03T00:54:20.482Z,5.50
2022-12-03T00:56:47.071Z,4.93
2022-12-03T00:59:13.617Z,4.63
2022-12-03T01:01:40.208Z,5.20
2022-12-03T01:04:06.852Z,4.57
2022-12-03T01:10:14.875Z,5.07
2022-12-03T01:12:41.445Z,5.13
2022-12-03T01:15:08.749Z,5.07
2022-12-03T01:17:35.342Z,4.97
2022-12-03T01:20:02.428Z,4.95
2022-12-03T01:22:28.926Z,4.53
2022-12-03T01:24:55.612Z,4.97
2022-12-03T01:27:22.862Z,5.07
2022-12-03T01:29:49.304Z,4.65
2022-12-03T01:32:21.987Z,4.85
2022-12-03T01:34:56.192Z,4.55
2022-12-03T01:37:25.363Z,5.07
2022-12-03T01:39:52.082Z,5.05
2022-12-03T01:42:23.117Z,4.60
2022-12-03T01:44:53.299Z,4.68
2022-12-03T01:47:27.617Z,4.43
2022-12-03T01:49:59.992Z,4.38
2022-12-03T01:52:31.366Z,4.45
2022-12-03T01:55:01.185Z,4.65
2022-12-03T01:57:43.844Z,4.67
2022-12-03T02:00:24.645Z,4.93
2022-12-03T02:05:40.633Z,4.47
2022-12-03T02:08:36.336Z,4.45
2022-12-03T02:11:08.569Z,4.57
2022-12-03T02:13:35.868Z,4.53
2022-12-03T02:16:03.720Z,4.40
2022-12-03T02:18:30.319Z,4.68
2022-12-03T02:21:38.034Z,5.07
2022-12-03T02:24:07.560Z,4.45
2022-12-03T02:26:34.066Z,4.57
2022-12-03T02:29:02.401Z,4.45
2022-12-03T02:31:29.003Z,4.57
2022-12-03T02:33:55.850Z,4.32
2022-12-03T02:36:22.688Z,4.03
2022-12-03T02:38:50.721Z,4.43
2022-12-03T02:41:39.166Z,4.43
2022-12-03T02:44:07.113Z,4.50
2022-12-03T02:46:34.289Z,4.40
2022-12-03T02:49:01.969Z,4.35
2022-12-03T02:51:28.698Z,4.20
2022-12-03T02:53:56.736Z,4.35
2022-12-03T02:56:27.816Z,4.07
2022-12-03T02:58:58.743Z,5.10
2022-12-03T03:01:25.831Z,4.07
2022-12-03T03:03:53.432Z,4.80
2022-12-03T03:06:20.832Z,4.80
2022-12-03T03:08:48.228Z,4.57
2022-12-03T03:11:14.854Z,4.30
2022-12-03T03:13:41.423Z,3.95
2022-12-03T03:16:08.907Z,4.03
2022-12-03T03:18:36.292Z,4.28
2022-12-03T03:21:04.092Z,4.53
2022-12-03T03:23:30.766Z,3.75
2022-12-03T03:26:04.914Z,4.07
2022-12-03T03:28:32.826Z,4.53
2022-12-03T03:31:02.428Z,4.28
2022-12-03T03:33:29.399Z,4.03
2022-12-03T03:35:56.119Z,4.38
2022-12-03T03:38:23.761Z,4.28
2022-12-03T03:40:51.888Z,4.50
2022-12-03T03:43:20.790Z,4.57
2022-12-03T03:45:47.575Z,4.25
2022-12-03T03:48:15.184Z,4.80
2022-12-03T03:50:43.562Z,3.95
2022-12-03T03:53:11.873Z,4.53
2022-12-03T03:55:39.454Z,4.10
2022-12-03T03:58:06.304Z,4.07
2022-12-03T04:00:32.882Z,4.25
2022-12-03T04:02:59.411Z,4.22
2022-12-03T04:05:26.196Z,4.20
2022-12-03T04:07:52.780Z,3.75
2022-12-03T04:10:37.922Z,4.20
2022-12-03T04:13:05.354Z,4.28
2022-12-03T04:15:32.131Z,4.30
2022-12-03T04:18:17.162Z,4.13
2022-12-03T04:20:43.868Z,4.10
2022-12-03T04:23:10.456Z,4.70
2022-12-03T04:25:55.704Z,4.03
2022-12-03T04:28:41.113Z,4.10
2022-12-03T04:31:26.473Z,4.38
2022-12-03T04:34:25.479Z,4.57
2022-12-03T04:36:52.051Z,4.05
2022-12-03T04:39:18.722Z,4.15
2022-12-03T04:41:45.223Z,3.90
2022-12-03T04:44:30.668Z,4.25
2022-12-03T04:46:57.333Z,3.72
2022-12-03T04:49:23.912Z,3.92
2022-12-03T04:51:50.446Z,4.03
2022-12-03T04:54:16.955Z,4.00
2022-12-03T04:56:43.574Z,3.90
2022-12-03T04:59:15.589Z,3.65
2022-12-03T05:01:42.674Z,4.05
2022-12-03T05:04:09.356Z,4.38
2022-12-03T05:06:36.044Z,3.40
2022-12-03T05:09:03.252Z,3.85
2022-12-03T05:11:29.719Z,3.97
2022-12-03T05:13:56.254Z,4.43
2022-12-03T05:16:22.899Z,3.85
2022-12-03T05:18:49.417Z,3.85
2022-12-03T05:21:16.093Z,3.65
2022-12-03T05:23:42.620Z,3.97
2022-12-03T05:26:09.127Z,3.78
2022-12-03T05:28:35.673Z,3.92
2022-12-03T05:31:02.445Z,4.13
2022-12-03T05:33:29.151Z,3.58
2022-12-03T05:35:55.726Z,4.15
2022-12-03T05:38:22.267Z,4.00
2022-12-03T05:40:48.869Z,3.88
2022-12-03T05:43:15.315Z,3.78
2022-12-03T05:45:43.271Z,4.05
2022-12-03T05:48:12.868Z,4.07
2022-12-03T05:50:41.521Z,3.45
2022-12-03T05:53:07.985Z,3.67
2022-12-03T05:55:34.413Z,3.58
2022-12-03T05:58:00.940Z,3.70
2022-12-03T06:00:35.435Z,3.92
2022-12-03T06:03:08.071Z,3.50
2022-12-03T06:05:35.010Z,3.67
2022-12-03T06:08:01.868Z,3.90
2022-12-03T06:10:28.566Z,3.25
2022-12-03T06:12:55.506Z,3.75
2022-12-03T06:15:22.643Z,3.95
2022-12-03T06:17:49.315Z,4.05
2022-12-03T06:20:19.560Z,3.83
2022-12-03T06:22:46.970Z,3.70
2022-12-03T06:25:14.686Z,3.45
2022-12-03T06:27:41.146Z,4.00
2022-12-03T06:30:08.970Z,3.47
2022-12-03T06:32:35.721Z,3.10
2022-12-03T06:35:02.373Z,3.63
2022-12-03T06:37:28.976Z,3.78
2022-12-03T06:39:55.529Z,3.70
2022-12-03T06:42:22.036Z,3.78
2022-12-03T06:44:48.501Z,3.60
2022-12-03T06:47:14.974Z,3.28
2022-12-03T06:49:41.500Z,3.67
2022-12-03T06:52:07.975Z,3.97
2022-12-03T06:54:34.490Z,3.28
2022-12-03T06:57:01.106Z,3.72
2022-12-03T06:59:27.886Z,3.72
2022-12-03T07:01:54.380Z,4.05
2022-12-03T07:04:20.900Z,3.50
2022-12-03T07:06:47.380Z,3.58
2022-12-03T07:09:16.631Z,3.55
2022-12-03T07:11:43.250Z,3.40
2022-12-03T07:14:11.642Z,3.50
2022-12-03T07:16:39.289Z,3.72
2022-12-03T07:19:06.952Z,4.07
2022-12-03T07:21:33.914Z,3.50
2022-12-03T07:24:00.547Z,3.92
2022-12-03T07:26:27.111Z,3.55
2022-12-03T07:28:53.576Z,3.97
2022-12-03T07:31:20.269Z,3.30
2022-12-03T07:33:46.822Z,3.45
2022-12-03T07:36:13.288Z,3.63
2022-12-03T07:38:39.752Z,3.45
2022-12-03T07:41:06.236Z,3.50
2022-12-03T07:43:33.078Z,3.75
2022-12-03T07:45:59.638Z,3.35
2022-12-03T07:48:26.303Z,3.40
2022-12-03T07:50:52.780Z,4.05
2022-12-03T07:53:19.268Z,3.38
2022-12-03T07:55:45.788Z,4.03
2022-12-03T07:58:12.284Z,3.83
2022-12-03T08:00:38.928Z,3.42
2022-12-03T08:03:05.422Z,3.40
2022-12-03T08:05:31.922Z,3.63
2022-12-03T08:08:01.289Z,3.65
2022-12-03T08:10:27.998Z,3.90
2022-12-03T08:12:57.476Z,3.55
2022-12-03T08:15:26.797Z,3.70
2022-12-03T08:18:01.039Z,3.85
2022-12-03T08:20:31.557Z,3.70
2022-12-03T08:22:58.005Z,3.45
2022-12-03T08:25:27.658Z,3.70
2022-12-03T08:27:57.959Z,3.58
2022-12-03T08:30:24.504Z,3.28
2022-12-03T08:32:51.238Z,3.50
2022-12-03T08:35:27.395Z,3.83
2022-12-03T08:38:05.664Z,3.38
2022-12-03T08:40:40.852Z,3.33
2022-12-03T08:43:36.576Z,3.80
2022-12-03T08:46:03.054Z,3.58
2022-12-03T08:48:37.994Z,3.90
2022-12-03T08:51:25.399Z,3.92
2022-12-03T08:54:01.559Z,3.67
2022-12-03T08:56:30.797Z,3.75
2022-12-03T08:59:12.437Z,3.67
2022-12-03T09:01:43.253Z,3.92
2022-12-03T09:04:16.322Z,3.38
2022-12-03T09:06:42.948Z,3.95
2022-12-03T09:09:09.398Z,3.88
2022-12-03T09:11:35.923Z,3.75
2022-12-03T09:14:02.365Z,3.65
2022-12-03T09:16:28.892Z,3.92
2022-12-03T09:18:55.435Z,3.67
2022-12-03T09:21:21.984Z,4.30
2022-12-03T09:23:48.952Z,3.60
2022-12-03T09:26:15.408Z,3.78
2022-12-03T09:28:42.103Z,4.10
2022-12-03T09:31:08.565Z,4.07
2022-12-03T09:33:35.173Z,3.80
2022-12-03T09:36:01.588Z,3.40
2022-12-03T09:38:28.087Z,3.83
2022-12-03T09:40:54.626Z,3.80
2022-12-03T09:43:21.312Z,4.57
2022-12-03T09:45:49.553Z,3.67
2022-12-03T09:48:18.825Z,3.90
2022-12-03T09:50:45.900Z,3.90
2022-12-03T09:53:18.601Z,3.75
2022-12-03T09:55:46.583Z,3.75
2022-12-03T09:58:15.966Z,3.72
2022-12-03T10:00:46.580Z,3.90
2022-12-03T10:03:16.107Z,3.80
2022-12-03T10:05:47.964Z,3.78
2022-12-03T10:08:20.764Z,3.50
2022-12-03T10:10:51.700Z,3.92
2022-12-03T10:13:26.151Z,4.20
2022-12-03T10:15:55.392Z,3.80
2022-12-03T10:18:25.244Z,3.80
2022-12-03T10:20:52.788Z,3.73
2022-12-03T10:23:21.417Z,3.75
2022-12-03T10:26:00.695Z,3.90
2022-12-03T10:28:32.720Z,3.80
2022-12-03T10:31:00.720Z,3.70
2022-12-03T10:33:31.101Z,3.90
2022-12-03T10:36:13.440Z,3.47
2022-12-03T10:38:39.924Z,3.47
2022-12-03T10:41:29.038Z,3.58
2022-12-03T10:44:21.184Z,3.75
2022-12-03T10:47:14.368Z,4.05
2022-12-03T10:49:41.936Z,3.92
2022-12-03T10:52:25.618Z,3.85
2022-12-03T10:54:53.069Z,3.83
2022-12-03T10:57:20.013Z,4.38
2022-12-03T10:59:46.522Z,3.90
2022-12-03T11:02:24.014Z,3.90
2022-12-03T11:04:51.836Z,3.83
2022-12-03T11:07:20.653Z,4.13
2022-12-03T11:09:52.359Z,4.07
2022-12-03T11:12:23.018Z,3.78
2022-12-03T11:14:50.934Z,4.20
2022-12-03T11:17:40.902Z,3.80
2022-12-03T11:20:30.485Z,4.10
2022-12-03T11:22:58.247Z,3.88
2022-12-03T11:25:24.665Z,4.28
2022-12-03T11:28:16.320Z,3.35
2022-12-03T11:30:48.685Z,3.53
2022-12-03T11:33:27.187Z,3.92
2022-12-03T11:36:02.828Z,3.88
2022-12-03T11:38:38.485Z,4.38
2022-12-03T11:41:27.198Z,4.20
2022-12-03T11:43:53.829Z,3.60
2022-12-03T11:46:27.451Z,4.18
2022-12-03T11:48:57.066Z,4.15
2022-12-03T11:51:26.541Z,3.67
2022-12-03T11:53:56.614Z,3.88
2022-12-03T11:56:26.725Z,4.25
2022-12-03T11:59:04.614Z,4.32
2022-12-03T12:01:38.842Z,4.22
2022-12-03T12:04:07.420Z,4.43
2022-12-03T12:06:48.717Z,4.22
2022-12-03T12:09:55.152Z,4.20
2022-12-03T12:12:37.524Z,3.90
2022-12-03T12:15:43.745Z,4.88
2022-12-03T12:18:45.225Z,4.32
2022-12-03T12:21:43.857Z,3.83
2022-12-03T12:24:32.162Z,4.63
2022-12-03T12:27:04.736Z,4.25
2022-12-03T12:29:31.253Z,4.43
2022-12-03T12:32:02.373Z,4.13
2022-12-03T12:34:29.482Z,4.03
2022-12-03T12:36:59.920Z,4.05
2022-12-03T12:39:26.981Z,5.03
2022-12-03T12:41:54.573Z,4.13
2022-12-03T12:44:23.527Z,4.93
2022-12-03T12:46:53.755Z,4.10
2022-12-03T12:49:26.679Z,4.75
2022-12-03T12:51:53.749Z,4.47
2022-12-03T12:54:20.554Z,4.63
2022-12-03T12:56:50.230Z,4.43
2022-12-03T12:59:21.965Z,4.55
2022-12-03T13:01:50.240Z,4.85
2022-12-03T13:04:20.159Z,4.57
2022-12-03T13:06:53.122Z,4.43
2022-12-03T13:09:25.151Z,4.15
2022-12-03T13:11:53.683Z,4.50
2022-12-03T13:14:25.477Z,5.05
2022-12-03T13:16:54.945Z,5.10
2022-12-03T13:19:24.757Z,4.93
2022-12-03T13:21:56.040Z,4.30
2022-12-03T13:24:50.821Z,4.75
2022-12-03T13:27:17.275Z,4.60
2022-12-03T13:30:11.862Z,5.25
2022-12-03T13:32:38.986Z,5.38
2022-12-03T13:35:24.055Z,4.88
2022-12-03T13:37:50.494Z,5.15
2022-12-03T13:40:22.950Z,5.07
2022-12-03T13:42:49.664Z,5.00
2022-12-03T13:45:16.121Z,4.68
2022-12-03T13:48:04.158Z,4.90
2022-12-03T13:50:39.978Z,5.30
2022-12-03T13:53:28.533Z,5.28
2022-12-03T13:56:14.167Z,4.82
2022-12-03T13:58:40.653Z,4.75
2022-12-03T14:01:07.281Z,5.18
2022-12-03T14:03:33.907Z,5.20
2022-12-03T14:06:00.484Z,5.15
2022-12-03T14:08:26.961Z,5.70
2022-12-03T14:10:59.898Z,4.57
2022-12-03T14:13:27.734Z,4.53
2022-12-03T14:15:54.297Z,5.10
2022-12-03T14:18:20.831Z,4.90
2022-12-03T14:20:48.350Z,4.78
2022-12-03T14:23:15.953Z,5.25
2022-12-03T14:25:44.075Z,5.45
2022-12-03T14:28:11.189Z,5.00
2022-12-03T14:30:37.758Z,5.30
2022-12-03T14:33:04.801Z,5.35
2022-12-03T14:35:32.153Z,5.07
2022-12-03T14:37:58.710Z,5.70
2022-12-03T14:40:25.262Z,5.10
2022-12-03T14:42:51.805Z,5.45
2022-12-03T14:45:18.266Z,4.80
2022-12-03T14:47:44.967Z,5.57
2022-12-03T14:50:14.367Z,5.05
2022-12-03T14:52:41.354Z,5.35
2022-12-03T14:55:08.237Z,5.32
2022-12-03T14:57:34.749Z,5.07
2022-12-03T15:00:01.553Z,4.85
2022-12-03T15:02:28.943Z,5.15
2022-12-03T15:04:55.471Z,5.05
2022-12-03T15:07:22.004Z,4.55
2022-12-03T15:09:48.696Z,4.55
2022-12-03T15:12:15.411Z,4.97
2022-12-03T15:14:42.460Z,5.18
2022-12-03T15:17:09.343Z,5.30
2022-12-03T15:19:35.918Z,4.90
2022-12-03T15:22:02.715Z,4.80
2022-12-03T15:24:29.703Z,5.10
2022-12-03T15:26:56.859Z,4.90
2022-12-03T15:29:23.624Z,4.93
2022-12-03T15:31:50.189Z,5.07
2022-12-03T15:34:22.199Z,5.40
2022-12-03T15:36:49.513Z,5.38
2022-12-03T15:39:16.101Z,5.25
2022-12-03T15:41:42.654Z,4.85
2022-12-03T15:44:09.216Z,4.70
2022-12-03T15:46:35.816Z,5.40
2022-12-03T15:49:02.405Z,4.95
2022-12-03T15:51:28.931Z,5.07
2022-12-03T15:53:55.403Z,4.63
2022-12-03T15:56:24.517Z,5.15
2022-12-03T15:58:51.036Z,4.88
2022-12-03T16:01:18.280Z,4.68
2022-12-03T16:03:45.103Z,5.40
2022-12-03T16:06:12.560Z,5.32
2022-12-03T16:08:39.108Z,4.60
2022-12-03T16:11:05.840Z,4.40
2022-12-03T16:13:32.334Z,4.70
2022-12-03T16:15:58.827Z,4.78
2022-12-03T16:18:25.414Z,5.07
2022-12-03T16:20:52.251Z,4.70
2022-12-03T16:23:18.747Z,5.18
2022-12-03T16:25:45.235Z,4.97
2022-12-03T16:28:11.715Z,4.65
2022-12-03T16:30:38.280Z,5.10
2022-12-03T16:33:04.840Z,4.53
2022-12-03T16:35:31.351Z,4.75
2022-12-03T16:37:57.832Z,4.82
2022-12-03T16:40:24.321Z,5.20
2022-12-03T16:42:50.813Z,5.30
2022-12-03T16:45:40.593Z,4.80
2022-12-03T16:48:07.069Z,4.85
2022-12-03T16:50:33.630Z,4.80
2022-12-03T16:53:00.110Z,4.80
2022-12-03T16:55:26.636Z,4.50
2022-12-03T16:57:53.180Z,4.28
2022-12-03T17:00:21.818Z,4.75
2022-12-03T17:02:48.733Z,4.70
2022-12-03T17:05:15.370Z,4.72
2022-12-03T17:07:42.011Z,4.75
2022-12-03T17:10:08.930Z,4.38
2022-12-03T17:13:01.080Z,4.85
2022-12-03T17:15:40.461Z,4.93
2022-12-03T17:18:08.153Z,5.15
2022-12-03T17:20:34.918Z,4.85
2022-12-03T17:23:01.624Z,5.03
2022-12-03T17:25:28.385Z,4.78
2022-12-03T17:27:54.931Z,5.07
2022-12-03T17:30:21.910Z,4.50
2022-12-03T17:32:50.406Z,5.13
2022-12-03T17:35:17.437Z,5.20
2022-12-03T17:37:43.990Z,5.18
2022-12-03T17:40:13.097Z,5.28
2022-12-03T17:42:39.745Z,5.20
2022-12-03T17:45:06.944Z,5.10
2022-12-03T17:47:33.423Z,4.72
2022-12-03T17:49:59.994Z,4.70
2022-12-03T17:52:26.761Z,4.88
2022-12-03T17:55:10.833Z,5.20
2022-12-03T17:57:38.663Z,4.90
2022-12-03T18:00:05.996Z,5.05
2022-12-03T18:02:32.436Z,4.90
2022-12-03T18:04:58.886Z,5.35
2022-12-03T18:07:25.513Z,5.22
2022-12-03T18:09:52.195Z,4.78
2022-12-03T18:12:19.064Z,4.70
2022-12-03T18:14:45.597Z,4.70
2022-12-03T18:17:13.925Z,5.45
2022-12-03T18:19:40.558Z,4.70
2022-12-03T18:22:07.246Z,5.35
2022-12-03T18:24:33.905Z,4.93
2022-12-03T18:27:00.625Z,5.32
2022-12-03T18:29:27.202Z,5.10
2022-12-03T18:31:53.823Z,5.30
2022-12-03T18:34:20.427Z,5.53
2022-12-03T18:36:49.000Z,5.60
2022-12-03T18:39:26.264Z,5.15
2022-12-03T18:41:53.673Z,4.40
2022-12-03T18:44:20.498Z,5.03
2022-12-03T18:46:54.916Z,4.90
2022-12-03T18:49:22.295Z,4.82
2022-12-03T18:51:49.825Z,4.97
2022-12-03T18:54:18.719Z,4.47
2022-12-03T18:56:45.152Z,5.03
2022-12-03T18:59:12.247Z,4.80
2022-12-03T19:01:38.802Z,5.28
2022-12-03T19:04:05.324Z,5.00
2022-12-03T19:06:32.115Z,4.82
2022-12-03T19:08:58.658Z,4.75
2022-12-03T19:11:25.449Z,5.03
2022-12-03T19:13:52.148Z,5.00
2022-12-03T19:16:19.004Z,5.10
2022-12-03T19:18:45.998Z,4.97
2022-12-03T19:21:15.500Z,4.68
2022-12-03T19:23:54.436Z,4.93
2022-12-03T19:26:29.562Z,4.85
2022-12-03T19:28:56.017Z,5.30
2022-12-03T19:31:22.765Z,5.55
2022-12-03T19:33:50.680Z,5.10
2022-12-03T19:36:24.154Z,5.60
2022-12-03T19:38:56.868Z,5.03
2022-12-03T19:41:27.325Z,5.43
2022-12-03T19:43:56.236Z,5.40
2022-12-03T19:46:24.877Z,4.75
2022-12-03T19:48:51.908Z,5.20
2022-12-03T19:51:35.451Z,5.05
2022-12-03T19:54:07.682Z,5.18
2022-12-03T19:56:34.882Z,5.35
2022-12-03T19:59:01.392Z,5.63
2022-12-03T20:01:31.209Z,5.13
2022-12-03T20:04:00.114Z,5.77
2022-12-03T20:06:30.186Z,4.90
2022-12-03T20:09:02.211Z,5.07
2022-12-03T20:11:31.025Z,6.00
2022-12-03T20:14:07.556Z,5.20
2022-12-03T20:16:35.278Z,5.93
2022-12-03T20:19:05.229Z,5.63
2022-12-03T20:21:35.077Z,5.50
2022-12-03T20:24:01.973Z,6.03
2022-12-03T20:26:29.322Z,5.65
2022-12-03T20:28:57.017Z,5.25
2022-12-03T20:31:26.667Z,5.47
2022-12-03T20:33:56.356Z,5.43
2022-12-03T20:36:23.938Z,5.47
2022-12-03T20:38:58.552Z,5.18
2022-12-03T20:41:25.601Z,5.20
2022-12-03T20:43:53.179Z,5.05
2022-12-03T20:46:25.815Z,5.28
2022-12-03T20:48:54.072Z,5.50
2022-12-03T20:51:23.981Z,5.68
2022-12-03T20:53:51.481Z,5.53
2022-12-03T20:56:21.170Z,5.68
2022-12-03T20:58:49.016Z,5.78
2022-12-03T21:01:21.086Z,5.97
2022-12-03T21:03:49.208Z,5.55
2022-12-03T21:06:16.749Z,5.43
2022-12-03T21:08:44.015Z,5.68
2022-12-03T21:11:12.553Z,5.75
2022-12-03T21:13:43.784Z,5.53
2022-12-03T21:16:15.396Z,5.53
2022-12-03T21:18:42.755Z,5.80
2022-12-03T21:21:11.463Z,5.90
2022-12-03T21:23:37.952Z,6.07
2022-12-03T21:26:10.328Z,6.15
2022-12-03T21:28:39.157Z,6.15
2022-12-03T21:31:08.439Z,6.05
2022-12-03T21:33:35.808Z,6.07
2022-12-03T21:36:03.056Z,6.38
2022-12-03T21:38:30.140Z,5.75
2022-12-03T21:40:57.671Z,5.75
2022-12-03T21:43:24.919Z,6.38
2022-12-03T21:45:52.503Z,6.43
2022-12-03T21:48:20.053Z,5.57
2022-12-03T21:50:59.171Z,5.72
2022-12-03T21:53:25.723Z,6.25
2022-12-03T21:55:52.276Z,5.93
2022-12-03T21:58:18.881Z,6.22
2022-12-03T22:00:45.390Z,6.50
2022-12-03T22:03:11.962Z,5.90
2022-12-03T22:05:39.001Z,6.97
2022-12-03T22:08:05.872Z,6.32
2022-12-03T22:10:32.385Z,5.50
2022-12-03T22:12:58.977Z,6.57
2022-12-03T22:15:25.496Z,6.18
2022-12-03T22:17:51.976Z,5.90
2022-12-03T22:20:18.682Z,5.95
2022-12-03T22:22:45.256Z,5.97
2022-12-03T22:25:11.849Z,6.43
2022-12-03T22:27:38.353Z,6.45
2022-12-03T22:30:05.884Z,5.90
2022-12-03T22:32:32.407Z,6.60
2022-12-03T22:34:58.876Z,6.38
2022-12-03T22:37:25.413Z,6.28
2022-12-03T22:39:51.918Z,6.25
2022-12-03T22:42:18.461Z,6.55
2022-12-03T22:44:45.012Z,6.30
2022-12-03T22:47:11.454Z,6.05
2022-12-03T22:49:37.940Z,5.75
2022-12-03T22:52:04.474Z,6.03
2022-12-03T22:54:30.955Z,6.82
2022-12-03T22:56:57.418Z,6.38
2022-12-03T22:59:23.915Z,6.45
2022-12-03T23:01:50.363Z,6.32
2022-12-03T23:04:16.914Z,6.28
2022-12-03T23:06:43.850Z,6.70
2022-12-03T23:09:10.670Z,6.30
2022-12-03T23:11:37.309Z,6.43
2022-12-03T23:14:03.882Z,6.03
2022-12-03T23:16:32.728Z,6.50
2022-12-03T23:19:01.603Z,6.63
2022-12-03T23:21:31.483Z,6.63
2022-12-03T23:23:59.451Z,5.97
2022-12-03T23:26:26.711Z,5.97
2022-12-03T23:28:53.225Z,7.07
2022-12-03T23:31:31.461Z,6.63
2022-12-03T23:33:59.283Z,6.47
2022-12-03T23:36:27.909Z,6.53
2022-12-03T23:38:54.677Z,6.88
2022-12-03T23:41:22.754Z,6.63
2022-12-03T23:43:49.527Z,6.88
2022-12-03T23:46:22.124Z,6.30
2022-12-03T23:48:49.054Z,6.07
2022-12-03T23:51:18.783Z,6.80
2022-12-03T23:53:45.414Z,6.40
2022-12-03T23:56:21.150Z,6.85
2022-12-03T23:58:48.458Z,6.20
